Sedro Woolley, Washington
Current Conditions -  °F | °C
As of 7:53 AM on Thursday 30 Oct 2014 (Local Time) from KBLI Reporting Station
Overcast Overcast  
Wind Chill: 54°   Ceiling: 9500
Heat Index: 54°   Visibility: 10mi
Dew Point: 44°   Wind: 9mph
Humidity: 69%   Direction: 20°NNE
Pressure: 29.85"   Gusts: NA
Location:  48.54°N, 122.19°W
Report Text: KBLI 301453Z 02008KT 10SM OVC095 12/07 A2985 RMK AO2 SLP114 T01220067 56026
Loading
Personal Weather Stations






























Interactive Weather Map New forecast layout! Learn more

10-Day Weather Forecast

Advertisements
Track Severe Weather on mobile